createdAt,value
2019-04-28T00:01:11.293Z,23.27
2019-04-28T00:03:38.563Z,22.13
2019-04-28T00:06:05.477Z,21.62
2019-04-28T00:08:32.522Z,23.25
2019-04-28T00:10:59.524Z,22.27
2019-04-28T00:13:26.814Z,22.55
2019-04-28T00:15:53.710Z,23.07
2019-04-28T00:18:22.082Z,23.35
2019-04-28T00:20:54.131Z,23.77
2019-04-28T00:23:29.200Z,22.45
2019-04-28T00:25:58.262Z,21.77
2019-04-28T00:28:25.507Z,22.77
2019-04-28T00:30:52.731Z,23.02
2019-04-28T00:33:19.868Z,24.00
2019-04-28T00:35:46.939Z,24.15
2019-04-28T00:38:14.206Z,24.57
2019-04-28T00:40:41.428Z,24.37
2019-04-28T00:43:08.653Z,25.45
2019-04-28T00:45:35.690Z,26.57
2019-04-28T00:48:02.988Z,26.35
2019-04-28T00:50:31.604Z,25.50
2019-04-28T00:52:58.716Z,26.17
2019-04-28T00:55:25.775Z,28.55
2019-04-28T00:57:53.504Z,32.33
2019-04-28T01:00:23.186Z,33.25
2019-04-28T01:02:50.960Z,32.75
2019-04-28T01:05:18.880Z,34.33
2019-04-28T01:07:46.187Z,33.05
2019-04-28T01:10:14.377Z,32.70
2019-04-28T01:12:41.587Z,34.45
2019-04-28T01:15:11.363Z,31.90
2019-04-28T01:17:50.069Z,33.02
2019-04-28T01:20:19.716Z,34.00
2019-04-28T01:22:46.746Z,32.33
2019-04-28T01:25:14.003Z,32.75
2019-04-28T01:27:41.065Z,33.50
2019-04-28T01:30:11.301Z,32.23
2019-04-28T01:32:46.330Z,30.45
2019-04-28T01:35:14.264Z,29.65
2019-04-28T01:37:41.268Z,30.12
2019-04-28T01:40:09.634Z,30.25
2019-04-28T01:42:37.019Z,30.52
2019-04-28T01:45:06.868Z,29.98
2019-04-28T01:47:33.775Z,30.75
2019-04-28T01:50:02.017Z,31.50
2019-04-28T01:52:30.302Z,27.85
2019-04-28T01:54:57.435Z,30.17
2019-04-28T01:57:24.455Z,29.23
2019-04-28T01:59:51.538Z,28.27
2019-04-28T02:02:19.897Z,27.07
2019-04-28T02:04:46.933Z,26.93
2019-04-28T02:07:13.833Z,27.60
2019-04-28T02:09:41.297Z,26.80
2019-04-28T02:12:10.532Z,26.65
2019-04-28T02:14:37.525Z,26.55
2019-04-28T02:17:04.700Z,27.67
2019-04-28T02:19:33.109Z,28.07
2019-04-28T02:22:02.285Z,25.97
2019-04-28T02:24:33.882Z,25.72
2019-04-28T02:27:01.458Z,24.32
2019-04-28T02:29:30.113Z,24.50
2019-04-28T02:31:57.675Z,24.75
2019-04-28T02:34:24.863Z,25.90
2019-04-28T02:36:53.841Z,25.10
2019-04-28T02:39:21.573Z,25.05
2019-04-28T02:41:51.172Z,24.90
2019-04-28T02:44:20.660Z,24.07
2019-04-28T02:46:47.368Z,23.57
2019-04-28T02:49:20.313Z,24.00
2019-04-28T02:51:55.294Z,23.10
2019-04-28T02:54:22.522Z,24.75
2019-04-28T02:56:51.001Z,24.35
2019-04-28T02:59:20.872Z,23.47
2019-04-28T03:01:47.281Z,25.43
2019-04-28T03:04:14.464Z,24.12
2019-04-28T03:06:43.028Z,22.45
2019-04-28T03:09:10.633Z,22.58
2019-04-28T03:11:38.197Z,20.05
2019-04-28T03:14:05.489Z,18.55
2019-04-28T03:16:32.747Z,18.65
2019-04-28T03:19:01.251Z,18.10
2019-04-28T03:21:31.051Z,16.67
2019-04-28T03:23:58.000Z,17.20
2019-04-28T03:26:26.997Z,16.25
2019-04-28T03:29:01.036Z,15.43
2019-04-28T03:32:07.714Z,16.05
2019-04-28T03:34:03.405Z,15.45
2019-04-28T03:36:32.533Z,16.15
2019-04-28T03:38:57.095Z,16.30
2019-04-28T03:41:24.151Z,17.60
2019-04-28T03:43:51.516Z,16.35
2019-04-28T03:46:23.260Z,17.00
2019-04-28T03:48:50.959Z,16.93
2019-04-28T03:51:20.951Z,16.25
2019-04-28T03:53:47.183Z,15.63
2019-04-28T03:56:14.400Z,14.90
2019-04-28T03:58:41.356Z,14.95
2019-04-28T04:01:10.794Z,16.90
2019-04-28T04:03:37.677Z,16.97
2019-04-28T04:06:04.785Z,17.45
2019-04-28T04:08:31.785Z,17.67
2019-04-28T04:11:00.272Z,16.97
2019-04-28T04:13:36.163Z,16.87
2019-04-28T04:16:03.255Z,16.40
2019-04-28T04:18:40.503Z,16.70
2019-04-28T04:21:06.851Z,15.50
2019-04-28T04:23:34.117Z,16.25
2019-04-28T04:26:01.872Z,16.37
2019-04-28T04:28:30.442Z,17.65
2019-04-28T04:31:00.510Z,17.62
2019-04-28T04:33:26.622Z,17.07
2019-04-28T04:35:53.787Z,16.93
2019-04-28T04:38:21.805Z,16.20
2019-04-28T04:40:51.244Z,16.42
2019-04-28T04:43:21.071Z,15.95
2019-04-28T04:45:50.103Z,16.67
2019-04-28T04:48:16.108Z,17.15
2019-04-28T04:50:43.111Z,17.40
2019-04-28T04:53:11.177Z,17.67
2019-04-28T04:55:40.582Z,18.80
2019-04-28T04:58:07.453Z,17.87
2019-04-28T05:00:36.492Z,16.82
2019-04-28T05:03:10.483Z,17.17
2019-04-28T05:05:40.421Z,17.77
2019-04-28T05:08:07.555Z,18.90
2019-04-28T05:10:34.516Z,18.52
2019-04-28T05:13:01.524Z,19.82
2019-04-28T05:15:30.419Z,21.25
2019-04-28T05:17:57.559Z,19.60
2019-04-28T05:20:24.523Z,19.02
2019-04-28T05:22:53.319Z,18.98
2019-04-28T05:25:24.497Z,18.70
2019-04-28T05:27:54.613Z,22.32
2019-04-28T05:30:20.520Z,20.02
2019-04-28T05:32:53.610Z,19.60
2019-04-28T05:35:21.992Z,19.95
2019-04-28T05:37:49.330Z,20.45
2019-04-28T05:40:16.623Z,23.60
2019-04-28T05:42:57.720Z,20.25
2019-04-28T05:45:27.246Z,20.45
2019-04-28T05:47:56.200Z,17.32
2019-04-28T05:50:25.208Z,17.23
2019-04-28T05:53:12.600Z,15.25
2019-04-28T05:58:13.693Z,15.20
2019-04-28T06:00:57.776Z,18.05
2019-04-28T06:03:27.835Z,21.12
2019-04-28T06:05:56.895Z,22.50
2019-04-28T06:08:28.147Z,23.50
2019-04-28T06:10:54.959Z,22.93
2019-04-28T06:13:22.060Z,20.23
2019-04-28T06:15:49.698Z,20.00
2019-04-28T06:18:16.654Z,20.08
2019-04-28T06:20:43.571Z,19.37
2019-04-28T06:23:11.599Z,20.30
2019-04-28T06:25:38.439Z,19.60
2019-04-28T06:28:05.547Z,19.35
2019-04-28T06:30:32.615Z,17.98
2019-04-28T06:33:07.600Z,17.85
2019-04-28T06:35:28.729Z,17.95
2019-04-28T06:37:55.939Z,19.57
2019-04-28T06:40:22.735Z,18.17
2019-04-28T06:42:49.935Z,18.35
2019-04-28T06:45:19.024Z,19.25
2019-04-28T06:47:45.987Z,20.90
2019-04-28T06:50:13.234Z,20.90
2019-04-28T06:52:40.258Z,21.73
2019-04-28T06:55:07.624Z,20.27
2019-04-28T06:57:34.558Z,20.80
2019-04-28T07:00:01.746Z,23.32
2019-04-28T07:02:29.270Z,21.73
2019-04-28T07:05:02.376Z,21.05
2019-04-28T07:07:27.471Z,19.80
2019-04-28T07:09:54.384Z,19.57
2019-04-28T07:12:23.748Z,20.37
2019-04-28T07:14:50.801Z,18.90
2019-04-28T07:17:18.020Z,21.50
2019-04-28T07:19:46.877Z,20.40
2019-04-28T07:22:24.807Z,17.52
2019-04-28T07:24:52.062Z,22.05
2019-04-28T07:27:19.473Z,17.75
2019-04-28T07:29:46.442Z,19.75
2019-04-28T07:32:13.446Z,24.57
2019-04-28T07:34:40.403Z,19.73
2019-04-28T07:37:07.339Z,18.27
2019-04-28T07:39:34.563Z,17.75
2019-04-28T07:42:01.579Z,17.73
2019-04-28T07:44:28.531Z,16.20
2019-04-28T07:46:55.493Z,16.55
2019-04-28T07:49:22.450Z,15.85
2019-04-28T07:51:52.223Z,16.65
2019-04-28T07:54:20.767Z,18.95
2019-04-28T07:56:47.678Z,20.37
2019-04-28T07:59:14.866Z,20.12
2019-04-28T08:01:41.867Z,19.55
2019-04-28T08:04:08.895Z,18.70
2019-04-28T08:06:35.981Z,16.77
2019-04-28T08:09:07.439Z,16.02
2019-04-28T08:11:34.339Z,15.88
2019-04-28T08:14:01.290Z,15.78
2019-04-28T08:16:28.456Z,17.27
2019-04-28T08:18:55.426Z,18.50
2019-04-28T08:21:22.435Z,19.73
2019-04-28T08:23:49.367Z,21.35
2019-04-28T08:26:16.478Z,20.08
2019-04-28T08:28:43.429Z,20.75
2019-04-28T08:31:12.379Z,21.02
2019-04-28T08:33:42.019Z,25.08
2019-04-28T08:36:08.967Z,24.00
2019-04-28T08:38:35.941Z,21.57
2019-04-28T08:41:03.107Z,18.67
2019-04-28T08:43:30.168Z,17.02
2019-04-28T08:45:57.111Z,18.80
2019-04-28T08:48:24.135Z,17.48
2019-04-28T08:50:51.117Z,17.02
2019-04-28T08:53:18.024Z,16.17
2019-04-28T08:55:45.307Z,14.10
2019-04-28T08:58:12.319Z,14.95
2019-04-28T09:00:39.153Z,14.10
2019-04-28T09:03:06.460Z,15.03
2019-04-28T09:05:33.535Z,13.62
2019-04-28T09:08:00.418Z,14.55
2019-04-28T09:10:29.182Z,14.65
2019-04-28T09:12:56.109Z,15.18
2019-04-28T09:15:23.070Z,15.68
2019-04-28T09:17:50.039Z,14.70
2019-04-28T09:20:17.099Z,15.05
2019-04-28T09:22:43.937Z,12.88
2019-04-28T09:25:11.214Z,12.95
2019-04-28T09:27:38.194Z,12.88
2019-04-28T09:30:06.152Z,11.65
2019-04-28T09:32:33.282Z,11.68
2019-04-28T09:35:00.222Z,10.40
2019-04-28T09:37:27.675Z,9.70
2019-04-28T09:39:56.512Z,10.20
2019-04-28T09:42:29.564Z,10.03
2019-04-28T09:44:57.677Z,10.95
2019-04-28T09:47:24.615Z,10.88
2019-04-28T09:49:51.755Z,10.43
2019-04-28T09:52:18.732Z,11.40
2019-04-28T09:54:45.795Z,11.80
2019-04-28T09:57:12.721Z,12.13
2019-04-28T09:59:39.535Z,12.18
2019-04-28T10:02:07.015Z,12.15
2019-04-28T10:04:41.274Z,8.38
2019-04-28T10:07:02.916Z,8.53
2019-04-28T10:09:29.934Z,7.25
2019-04-28T10:11:56.883Z,8.28
2019-04-28T10:14:23.866Z,9.90
2019-04-28T10:16:50.676Z,8.90
2019-04-28T10:19:17.925Z,7.58
2019-04-28T10:21:45.042Z,8.35
2019-04-28T10:24:12.015Z,8.53
2019-04-28T10:26:39.080Z,8.28
2019-04-28T10:29:05.993Z,8.98
2019-04-28T10:31:33.203Z,9.30
2019-04-28T10:34:02.090Z,9.63
2019-04-28T10:36:30.643Z,9.15
2019-04-28T10:38:59.392Z,9.05
2019-04-28T10:41:31.047Z,7.47
2019-04-28T10:43:58.004Z,6.83
2019-04-28T10:46:25.195Z,7.42
2019-04-28T10:48:52.033Z,6.58
2019-04-28T10:51:19.290Z,7.92
2019-04-28T10:53:46.316Z,7.42
2019-04-28T10:56:13.204Z,7.75
2019-04-28T10:58:41.920Z,7.33
2019-04-28T11:01:08.871Z,7.00
2019-04-28T11:03:35.778Z,7.15
2019-04-28T11:06:02.935Z,7.12
2019-04-28T11:08:34.898Z,9.20
2019-04-28T11:11:03.731Z,10.48
2019-04-28T11:13:30.787Z,8.35
2019-04-28T11:15:57.592Z,8.33
2019-04-28T11:18:24.719Z,6.87
2019-04-28T11:20:51.651Z,8.45
2019-04-28T11:23:18.675Z,7.40
2019-04-28T11:25:46.016Z,10.65
2019-04-28T11:28:12.992Z,8.20
2019-04-28T11:30:40.163Z,11.03
2019-04-28T11:33:25.571Z,9.65
2019-04-28T11:35:52.632Z,9.10
2019-04-28T11:38:19.528Z,9.63
2019-04-28T11:40:46.585Z,8.53
2019-04-28T11:43:13.690Z,10.20
2019-04-28T11:45:41.036Z,7.08
2019-04-28T11:48:07.955Z,8.08
2019-04-28T11:50:35.125Z,8.05
2019-04-28T11:53:02.030Z,10.38
2019-04-28T11:55:28.882Z,8.20
2019-04-28T11:57:55.817Z,7.35
2019-04-28T12:00:30.638Z,6.30
2019-04-28T12:02:58.027Z,5.70
2019-04-28T12:05:34.362Z,6.28
2019-04-28T12:07:55.991Z,5.62
2019-04-28T12:10:35.216Z,5.20
2019-04-28T12:13:06.939Z,5.62
2019-04-28T12:15:52.532Z,6.20
2019-04-28T12:18:38.431Z,6.75
2019-04-28T12:21:05.305Z,7.67
2019-04-28T12:23:32.131Z,7.30
2019-04-28T12:25:59.261Z,7.12
2019-04-28T12:28:26.368Z,6.92
2019-04-28T12:30:53.340Z,6.65
2019-04-28T12:33:20.692Z,6.87
2019-04-28T12:35:48.360Z,6.67
2019-04-28T12:38:15.611Z,6.83
2019-04-28T12:40:42.739Z,7.80
2019-04-28T12:43:10.231Z,10.18
2019-04-28T12:45:37.353Z,9.38
2019-04-28T12:48:04.513Z,7.05
2019-04-28T12:50:39.104Z,7.17
2019-04-28T12:53:06.569Z,6.95
2019-04-28T12:55:33.883Z,9.33
2019-04-28T12:58:05.289Z,8.55
2019-04-28T13:00:51.309Z,9.45
2019-04-28T13:03:36.930Z,9.63
2019-04-28T13:06:06.130Z,8.80
2019-04-28T13:08:33.682Z,8.35
2019-04-28T13:11:00.595Z,7.12
2019-04-28T13:13:27.824Z,7.08
2019-04-28T13:15:55.014Z,6.85
2019-04-28T13:18:22.064Z,8.43
2019-04-28T13:20:49.087Z,8.18
2019-04-28T13:23:15.956Z,8.80
2019-04-28T13:25:42.910Z,8.43
2019-04-28T13:28:10.107Z,8.80
2019-04-28T13:30:37.040Z,9.80
2019-04-28T13:33:04.595Z,9.30
2019-04-28T13:35:31.957Z,8.90
2019-04-28T13:37:58.963Z,8.43
2019-04-28T13:40:30.434Z,8.65
2019-04-28T13:42:58.023Z,8.65
2019-04-28T13:45:28.944Z,9.93
2019-04-28T13:47:56.454Z,11.22
2019-04-28T13:50:29.853Z,11.22
2019-04-28T13:52:57.107Z,10.53
2019-04-28T13:55:24.357Z,10.60
2019-04-28T13:57:51.273Z,10.65
2019-04-28T14:00:21.215Z,11.03
2019-04-28T14:02:52.934Z,12.40
2019-04-28T14:05:23.169Z,13.35
2019-04-28T14:07:50.208Z,13.55
2019-04-28T14:10:17.542Z,14.85
2019-04-28T14:12:44.545Z,15.25
2019-04-28T14:15:12.006Z,15.13
2019-04-28T14:17:38.959Z,16.00
2019-04-28T14:20:06.768Z,14.85
2019-04-28T14:22:33.849Z,17.73
2019-04-28T14:25:01.172Z,18.52
2019-04-28T14:27:28.688Z,18.92
2019-04-28T14:29:55.721Z,21.42
2019-04-28T14:32:22.818Z,22.10
2019-04-28T14:34:49.643Z,21.90
2019-04-28T14:37:17.013Z,19.85
2019-04-28T14:39:44.283Z,17.42
2019-04-28T14:42:11.603Z,18.77
2019-04-28T14:44:38.644Z,19.35
2019-04-28T14:47:05.737Z,22.42
2019-04-28T14:49:32.707Z,21.77
2019-04-28T14:52:00.015Z,22.05
2019-04-28T14:57:07.743Z,20.65
2019-04-28T14:59:34.733Z,17.25
2019-04-28T15:02:01.704Z,13.08
2019-04-28T15:04:30.447Z,12.65
2019-04-28T15:07:02.087Z,14.35
2019-04-28T15:09:32.849Z,16.65
2019-04-28T15:12:01.801Z,16.85
2019-04-28T15:14:28.762Z,19.48
2019-04-28T15:16:55.896Z,17.00
2019-04-28T15:19:22.795Z,17.15
2019-04-28T15:21:50.032Z,17.12
2019-04-28T15:24:16.947Z,12.50
2019-04-28T15:26:43.800Z,11.93
2019-04-28T15:29:10.865Z,12.37
2019-04-28T15:31:37.853Z,33.00
2019-04-28T15:34:05.051Z,20.95
2019-04-28T15:36:32.260Z,14.70
2019-04-28T15:38:59.155Z,15.83
2019-04-28T15:41:26.311Z,17.20
2019-04-28T15:43:53.429Z,13.72
2019-04-28T15:46:20.366Z,15.80
2019-04-28T15:48:47.803Z,16.82
2019-04-28T15:51:14.696Z,16.93
2019-04-28T15:53:43.844Z,15.98
2019-04-28T15:56:24.931Z,18.25
2019-04-28T15:58:52.046Z,19.10
2019-04-28T16:01:19.087Z,18.35
2019-04-28T16:03:46.152Z,15.48
2019-04-28T16:06:13.078Z,18.40
2019-04-28T16:08:40.287Z,17.23
2019-04-28T16:11:07.586Z,16.15
2019-04-28T16:13:34.492Z,16.42
2019-04-28T16:16:01.644Z,19.17
2019-04-28T16:18:28.796Z,17.20
2019-04-28T16:20:56.215Z,19.95
2019-04-28T16:23:23.615Z,19.23
2019-04-28T16:25:50.574Z,20.77
2019-04-28T16:28:17.746Z,19.45
2019-04-28T16:30:45.200Z,20.25
2019-04-28T16:33:12.180Z,14.33
2019-04-28T16:35:39.192Z,16.80
2019-04-28T16:38:06.138Z,16.25
2019-04-28T16:40:36.632Z,15.93
2019-04-28T16:43:05.612Z,18.67
2019-04-28T16:45:32.422Z,14.33
2019-04-28T16:47:59.776Z,13.60
2019-04-28T16:50:27.515Z,13.38
2019-04-28T16:52:54.352Z,14.68
2019-04-28T16:55:29.069Z,14.28
2019-04-28T16:58:14.721Z,16.77
2019-04-28T17:00:44.483Z,18.17
2019-04-28T17:03:11.817Z,19.70
2019-04-28T17:05:38.653Z,15.30
2019-04-28T17:08:05.614Z,20.12
2019-04-28T17:10:32.413Z,20.75
2019-04-28T17:12:59.521Z,19.07
2019-04-28T17:15:26.572Z,19.12
2019-04-28T17:17:54.162Z,17.98
2019-04-28T17:20:23.157Z,19.40
2019-04-28T17:22:50.675Z,20.27
2019-04-28T17:25:17.780Z,19.65
2019-04-28T17:27:44.836Z,22.00
2019-04-28T17:30:13.944Z,21.55
2019-04-28T17:32:42.016Z,19.32
2019-04-28T17:35:09.220Z,20.32
2019-04-28T17:37:36.336Z,13.95
2019-04-28T17:40:05.461Z,14.25
2019-04-28T17:42:32.573Z,14.40
2019-04-28T17:44:59.756Z,11.90
2019-04-28T17:47:27.066Z,13.28
2019-04-28T17:49:54.140Z,13.13
2019-04-28T17:52:21.246Z,13.75
2019-04-28T17:54:48.215Z,14.00
2019-04-28T17:57:15.437Z,13.68
2019-04-28T17:59:42.980Z,14.95
2019-04-28T18:02:28.952Z,13.90
2019-04-28T18:05:00.796Z,16.17
2019-04-28T18:07:30.084Z,15.30
2019-04-28T18:09:57.091Z,16.12
2019-04-28T18:12:24.257Z,18.75
2019-04-28T18:14:53.099Z,18.95
2019-04-28T18:17:26.220Z,21.30
2019-04-28T18:19:53.474Z,19.48
2019-04-28T18:22:20.379Z,16.75
2019-04-28T18:24:47.312Z,18.27
2019-04-28T18:27:14.240Z,16.57
2019-04-28T18:29:41.180Z,15.03
2019-04-28T18:32:15.837Z,14.15
2019-04-28T18:34:47.453Z,14.65
2019-04-28T18:37:17.178Z,14.60
2019-04-28T18:40:02.683Z,15.90
2019-04-28T18:42:34.809Z,16.95
2019-04-28T18:45:02.259Z,14.28
2019-04-28T18:47:29.304Z,14.65
2019-04-28T18:49:56.430Z,16.73
2019-04-28T18:52:23.453Z,16.37
2019-04-28T18:54:51.598Z,18.73
2019-04-28T18:57:18.505Z,17.95
2019-04-28T18:59:45.729Z,16.80
2019-04-28T19:02:14.546Z,17.10
2019-04-28T19:04:41.509Z,14.55
2019-04-28T19:07:10.531Z,17.75
2019-04-28T19:09:51.594Z,14.30
2019-04-28T19:12:29.363Z,14.03
2019-04-28T19:14:58.533Z,13.62
2019-04-28T19:17:27.801Z,14.95
2019-04-28T19:19:54.824Z,13.93
2019-04-28T19:22:21.907Z,12.90
2019-04-28T19:24:48.864Z,12.78
2019-04-28T19:27:15.982Z,12.85
2019-04-28T19:29:42.971Z,12.18
2019-04-28T19:32:10.164Z,12.78
2019-04-28T19:34:37.472Z,12.53
2019-04-28T19:37:04.639Z,12.23
2019-04-28T19:39:31.867Z,13.08
2019-04-28T19:41:58.978Z,13.03
2019-04-28T19:44:26.264Z,12.80
2019-04-28T19:46:53.351Z,11.05
2019-04-28T19:49:20.395Z,9.43
2019-04-28T19:51:47.715Z,10.98
2019-04-28T19:54:16.819Z,10.70
2019-04-28T19:56:48.922Z,10.25
2019-04-28T19:59:23.436Z,9.00
2019-04-28T20:01:50.555Z,10.00
2019-04-28T20:04:17.803Z,14.10
2019-04-28T20:06:44.782Z,18.98
2019-04-28T20:09:12.470Z,15.35
2019-04-28T20:11:39.543Z,13.03
2019-04-28T20:14:06.679Z,13.78
2019-04-28T20:16:33.571Z,9.08
2019-04-28T20:19:00.602Z,9.23
2019-04-28T20:21:27.761Z,9.08
2019-04-28T20:23:54.863Z,10.05
2019-04-28T20:26:22.050Z,11.88
2019-04-28T20:28:48.962Z,10.90
2019-04-28T20:31:15.995Z,10.15
2019-04-28T20:33:43.395Z,10.23
2019-04-28T20:36:25.808Z,8.73
2019-04-28T20:38:57.326Z,7.87
2019-04-28T20:41:26.559Z,8.13
2019-04-28T20:43:54.752Z,7.58
2019-04-28T20:46:21.655Z,8.20
2019-04-28T20:48:48.594Z,7.10
2019-04-28T20:51:15.814Z,6.62
2019-04-28T20:53:42.781Z,7.03
2019-04-28T20:56:09.670Z,6.30
2019-04-28T20:58:36.615Z,6.45
2019-04-28T21:01:04.129Z,6.50
2019-04-28T21:03:31.176Z,6.28
2019-04-28T21:05:58.063Z,5.92
2019-04-28T21:08:25.606Z,6.85
2019-04-28T21:10:52.719Z,6.90
2019-04-28T21:13:19.875Z,8.23
2019-04-28T21:15:47.084Z,8.23
2019-04-28T21:18:14.178Z,7.62
2019-04-28T21:20:41.308Z,8.43
2019-04-28T21:23:08.239Z,7.78
2019-04-28T21:25:35.604Z,7.78
2019-04-28T21:28:03.549Z,7.87
2019-04-28T21:30:30.627Z,8.18
2019-04-28T21:32:57.539Z,8.30
2019-04-28T21:35:24.367Z,8.00
2019-04-28T21:37:52.172Z,8.48
2019-04-28T21:40:19.413Z,8.23
2019-04-28T21:42:55.532Z,7.45
2019-04-28T21:48:08.567Z,7.75
2019-04-28T21:50:35.606Z,7.58
2019-04-28T21:53:02.619Z,6.47
2019-04-28T21:55:29.947Z,6.97
2019-04-28T21:57:56.866Z,8.43
2019-04-28T22:00:47.491Z,7.20
2019-04-28T22:03:14.336Z,7.75
2019-04-28T22:05:41.612Z,7.25
2019-04-28T22:08:08.531Z,5.90
2019-04-28T22:10:35.613Z,4.80
2019-04-28T22:13:03.035Z,4.83
2019-04-28T22:15:29.976Z,3.85
2019-04-28T22:17:57.108Z,4.25
2019-04-28T22:20:24.023Z,3.58
2019-04-28T22:22:51.024Z,3.37
2019-04-28T22:25:20.213Z,2.25
2019-04-28T22:27:47.349Z,2.92
2019-04-28T22:30:15.182Z,2.58
2019-04-28T22:32:42.724Z,2.40
2019-04-28T22:35:09.892Z,2.67
2019-04-28T22:37:37.028Z,2.40
2019-04-28T22:40:05.864Z,2.58
2019-04-28T22:42:33.103Z,2.30
2019-04-28T22:45:00.268Z,2.15
2019-04-28T22:47:27.307Z,2.65
2019-04-28T22:49:54.251Z,3.27
2019-04-28T22:52:21.186Z,2.52
2019-04-28T22:54:48.576Z,3.65
2019-04-28T22:57:17.500Z,3.80
2019-04-28T22:59:46.319Z,3.33
2019-04-28T23:02:15.187Z,2.47
2019-04-28T23:05:02.250Z,2.80
2019-04-28T23:07:29.522Z,3.10
2019-04-28T23:09:56.555Z,3.70
2019-04-28T23:12:24.299Z,4.12
2019-04-28T23:14:51.259Z,4.65
2019-04-28T23:17:19.692Z,3.75
2019-04-28T23:19:46.712Z,3.95
2019-04-28T23:22:45.883Z,4.45
2019-04-28T23:25:01.212Z,3.58
2019-04-28T23:27:28.213Z,3.08
2019-04-28T23:29:55.762Z,3.40
2019-04-28T23:32:22.563Z,2.98
2019-04-28T23:34:49.563Z,2.77
2019-04-28T23:37:16.736Z,2.45
2019-04-28T23:39:43.868Z,1.87
2019-04-28T23:42:12.719Z,1.32
2019-04-28T23:44:40.036Z,1.92
2019-04-28T23:47:07.435Z,1.98
2019-04-28T23:49:34.486Z,2.02
2019-04-28T23:52:01.465Z,2.15
2019-04-28T23:54:28.451Z,1.95
2019-04-28T23:56:55.330Z,2.27
2019-04-28T23:59:22.232Z,3.10
